Mary Ann Moran — WDF4572 — position and weather

sailwx.info

Track history (hours):
 
Tides and Currents Weather Stations Pressure Air Temp Water Temp Dewpoint Dewpoint Depression Visibility Wind Speed Wind Dir Waves Ship Positions

Mary Ann Moran

Owner: MORAN TOWING CORPORATION, NEW CANAAN, CT. More information available from US FCC via Universal Licensing System and Coast Guard Vessel Documentation Center.

Last reported at 2018-May-11 02:11 UTC. Time now 2018-Jun-18 00:20 UTC.
Position N 27°35' W 082°59'.
Warning: this ship's position is 37 days out of date.

Length 188 m; draft 5.5 m.

Type: . MMSI: 367453420.

Date/timePositionNaut miles runAvg speedWind from/ knotsBaromVisibWave heightAir tempDewpointWater temp
2018-May-11 02:11N 27°35' W 082°59'14 9.5
2018-May-11 00:45N 27°36' W 082°44'3 9.2
2018-May-11 00:26N 27°37' W 082°41'4 9.2
2018-May-11 00:01N 27°39' W 082°37'5 9.4
2018-May-10 23:31N 27°42' W 082°33'5 9.4
2018-May-10 22:59N 27°47' W 082°31'4 9.4
2018-May-10 22:30N 27°49' W 082°27'5 9.7
2018-May-10 22:00N 27°54' W 082°26'3 5.2
2018-May-10 21:31N 27°56' W 082°27'1 1.5
2018-May-10 21:01N 27°57' W 082°27'0 0.0
2018-May-10 20:31N 27°57' W 082°27'0 0.0
2018-May-10 19:58N 27°57' W 082°27'0 0.0
2018-May-10 19:28N 27°57' W 082°27'0 0.0
2018-May-10 18:58N 27°57' W 082°27'0 0.0
2018-May-10 18:28N 27°57' W 082°27'0 0.0
2018-May-10 17:58N 27°57' W 082°27'0 0.0
2018-May-10 17:28N 27°57' W 082°27'0 0.0
2018-May-10 16:58N 27°57' W 082°27'0 0.0
2018-May-10 16:22N 27°57' W 082°27'0 0.0
2018-May-10 15:58N 27°57' W 082°27'0 0.0
2018-May-10 15:28N 27°57' W 082°27'0 0.0
2018-May-10 14:58N 27°57' W 082°27'0 0.0
2018-May-10 14:28N 27°57' W 082°27'0 0.0
2018-May-10 13:58N 27°57' W 082°27'0 0.0
2018-May-10 13:28N 27°57' W 082°27'0 0.0
2018-May-10 12:58N 27°57' W 082°27'0 0.0
2018-May-10 12:28N 27°57' W 082°27'0 0.0
2018-May-10 11:58N 27°57' W 082°27'0 0.0
2018-May-10 11:28N 27°57' W 082°27'0 0.0
2018-May-10 10:58N 27°57' W 082°27'0 0.0
2018-May-10 10:28N 27°57' W 082°27'0 0.0
2018-May-10 09:58N 27°57' W 082°27'0 0.0
2018-May-10 09:28N 27°57' W 082°27'0 0.0
2018-May-10 08:58N 27°57' W 082°27'0 0.0
2018-May-10 08:28N 27°57' W 082°27'0 0.0
2018-May-10 07:58N 27°57' W 082°27'0 0.0
2018-May-10 07:28N 27°57' W 082°27'0 0.0
2018-May-10 06:58N 27°57' W 082°27'0 0.0
2018-May-10 06:28N 27°57' W 082°27'0 0.0
2018-May-10 05:58N 27°57' W 082°27'0 0.0
2018-May-10 05:28N 27°57' W 082°27'0 0.0
2018-May-10 04:58N 27°57' W 082°27'0 0.0
2018-May-10 04:28N 27°57' W 082°27'0 0.0
2018-May-10 03:58N 27°57' W 082°27'0 0.0
2018-May-10 03:28N 27°57' W 082°27'0 0.0
2018-May-10 02:58N 27°57' W 082°27'0 0.0
2018-May-10 02:28N 27°57' W 082°27'0 0.0
2018-May-10 01:58N 27°57' W 082°27'0 0.0
2018-May-10 01:28N 27°57' W 082°27'0 0.0
2018-May-10 00:58N 27°57' W 082°27'0 0.0
2018-May-10 00:28N 27°57' W 082°27'0 0.0
2018-May-09 23:58N 27°57' W 082°27'0 0.0
2018-May-09 23:28N 27°57' W 082°27'0 0.0
2018-May-09 22:58N 27°57' W 082°27'0 0.0
2018-May-09 22:28N 27°57' W 082°27'0 0.0
2018-May-09 21:58N 27°57' W 082°27'0 0.0
2018-May-09 21:28N 27°57' W 082°27'0 0.0
2018-May-09 20:58N 27°57' W 082°27'0 0.0
2018-May-09 20:28N 27°57' W 082°27'0 0.0
2018-May-09 19:58N 27°57' W 082°27'0 0.0
2018-May-09 19:28N 27°57' W 082°27'0 0.0
2018-May-09 18:58N 27°57' W 082°27'0 0.0
2018-May-09 18:28N 27°57' W 082°27'0 0.0
2018-May-09 17:58N 27°57' W 082°27'0 0.0
2018-May-09 17:28N 27°57' W 082°27'0 0.0
2018-May-09 16:58N 27°57' W 082°27'0 0.0
2018-May-09 16:28N 27°57' W 082°27'0 0.0
2018-May-09 15:58N 27°57' W 082°27'0 0.0
2018-May-09 15:28N 27°57' W 082°27'0 0.0
2018-May-09 14:58N 27°57' W 082°27'0 0.0
2018-May-09 14:28N 27°57' W 082°27'0 0.0
2018-May-09 13:58N 27°57' W 082°27'0 0.0
2018-May-09 13:28N 27°57' W 082°27'0 0.0
2018-May-09 12:58N 27°57' W 082°27'0 0.0
2018-May-09 12:28N 27°57' W 082°27'0 0.0
2018-May-09 11:58N 27°57' W 082°27'0 0.0
2018-May-09 11:28N 27°57' W 082°27'0 0.0
2018-May-09 10:58N 27°57' W 082°27'0 0.0
2018-May-09 10:28N 27°57' W 082°27'0 0.0
2018-May-09 09:58N 27°57' W 082°27'0 0.0
2018-May-09 09:28N 27°57' W 082°27'0 0.0
2018-May-09 08:58N 27°57' W 082°27'0 0.0
2018-May-09 08:28N 27°57' W 082°27'0 0.0
2018-May-09 07:55N 27°57' W 082°27'0 0.0
2018-May-09 07:28N 27°57' W 082°27'0 0.0
2018-May-09 06:58N 27°57' W 082°27'0 0.0
2018-May-09 06:28N 27°57' W 082°27'0 0.0
2018-May-09 05:55N 27°57' W 082°27'0 0.0
2018-May-09 05:28N 27°57' W 082°27'0 0.0
2018-May-09 04:58N 27°57' W 082°27'0 0.0
2018-May-09 04:28N 27°57' W 082°27'0 0.0
2018-May-09 03:58N 27°57' W 082°27'0 0.0
2018-May-09 03:28N 27°57' W 082°27'0 0.0
2018-May-09 02:58N 27°57' W 082°27'0 0.0
2018-May-09 02:28N 27°57' W 082°27'0 0.0
2018-May-09 01:58N 27°57' W 082°27'0 0.1
2018-May-09 01:28N 27°57' W 082°27'0 0.0
2018-May-09 00:58N 27°57' W 082°27'0 0.0
2018-May-09 00:28N 27°57' W 082°27'0 0.0
2018-May-08 23:58N 27°57' W 082°27'0 0.0
2018-May-08 23:28N 27°57' W 082°27'0 0.0
2018-May-08 22:58N 27°57' W 082°27'0 0.0
2018-May-08 22:28N 27°57' W 082°27'0 0.0
2018-May-08 21:58N 27°57' W 082°27'0 0.0
2018-May-08 21:28N 27°57' W 082°27'0 0.0
2018-May-08 21:00N 27°57' W 082°27'0 0.0
2018-May-08 20:30N 27°57' W 082°27'0 0.0
2018-May-08 20:00N 27°57' W 082°27'0 0.0
2018-May-08 19:26N 27°57' W 082°27'0 0.1
2018-May-08 19:01N 27°57' W 082°27'1 1.3
2018-May-08 18:30N 27°56' W 082°27'2 4.6
2018-May-08 18:01N 27°54' W 082°26'5 9.2
2018-May-08 17:31N 27°49' W 082°27'4 8.8
2018-May-08 17:01N 27°47' W 082°31'5 9.3
2018-May-08 16:30N 27°43' W 082°33'  
Track history (hours):
 
Tides and Currents Weather Stations Pressure Air Temp Water Temp Dewpoint Dewpoint Depression Visibility Wind Speed Wind Dir Waves Ship Positions

Mary Ann Moran

Owner: MORAN TOWING CORPORATION, NEW CANAAN, CT. More information available from US FCC via Universal Licensing System and Coast Guard Vessel Documentation Center.

Last reported at 2018-May-11 02:11 UTC. Time now 2018-Jun-18 00:20 UTC.
Position N 27°35' W 082°59'.
Warning: this ship's position is 37 days out of date.

Length 188 m; draft 5.5 m.

Type: . MMSI: 367453420.

Date/timePositionNaut miles runAvg speedWind from/ knotsBaromVisibWave heightAir tempDewpointWater temp
2018-May-11 02:11N 27°35' W 082°59'14 9.5
2018-May-11 00:45N 27°36' W 082°44'3 9.2
2018-May-11 00:26N 27°37' W 082°41'4 9.2
2018-May-11 00:01N 27°39' W 082°37'5 9.4
2018-May-10 23:31N 27°42' W 082°33'5 9.4
2018-May-10 22:59N 27°47' W 082°31'4 9.4
2018-May-10 22:30N 27°49' W 082°27'5 9.7
2018-May-10 22:00N 27°54' W 082°26'3 5.2
2018-May-10 21:31N 27°56' W 082°27'1 1.5
2018-May-10 21:01N 27°57' W 082°27'0 0.0
2018-May-10 20:31N 27°57' W 082°27'0 0.0
2018-May-10 19:58N 27°57' W 082°27'0 0.0
2018-May-10 19:28N 27°57' W 082°27'0 0.0
2018-May-10 18:58N 27°57' W 082°27'0 0.0
2018-May-10 18:28N 27°57' W 082°27'0 0.0
2018-May-10 17:58N 27°57' W 082°27'0 0.0
2018-May-10 17:28N 27°57' W 082°27'0 0.0
2018-May-10 16:58N 27°57' W 082°27'0 0.0
2018-May-10 16:22N 27°57' W 082°27'0 0.0
2018-May-10 15:58N 27°57' W 082°27'0 0.0
2018-May-10 15:28N 27°57' W 082°27'0 0.0
2018-May-10 14:58N 27°57' W 082°27'0 0.0
2018-May-10 14:28N 27°57' W 082°27'0 0.0
2018-May-10 13:58N 27°57' W 082°27'0 0.0
2018-May-10 13:28N 27°57' W 082°27'0 0.0
2018-May-10 12:58N 27°57' W 082°27'0 0.0
2018-May-10 12:28N 27°57' W 082°27'0 0.0
2018-May-10 11:58N 27°57' W 082°27'0 0.0
2018-May-10 11:28N 27°57' W 082°27'0 0.0
2018-May-10 10:58N 27°57' W 082°27'0 0.0
2018-May-10 10:28N 27°57' W 082°27'0 0.0
2018-May-10 09:58N 27°57' W 082°27'0 0.0
2018-May-10 09:28N 27°57' W 082°27'0 0.0
2018-May-10 08:58N 27°57' W 082°27'0 0.0
2018-May-10 08:28N 27°57' W 082°27'0 0.0
2018-May-10 07:58N 27°57' W 082°27'0 0.0
2018-May-10 07:28N 27°57' W 082°27'0 0.0
2018-May-10 06:58N 27°57' W 082°27'0 0.0
2018-May-10 06:28N 27°57' W 082°27'0 0.0
2018-May-10 05:58N 27°57' W 082°27'0 0.0
2018-May-10 05:28N 27°57' W 082°27'0 0.0
2018-May-10 04:58N 27°57' W 082°27'0 0.0
2018-May-10 04:28N 27°57' W 082°27'0 0.0
2018-May-10 03:58N 27°57' W 082°27'0 0.0
2018-May-10 03:28N 27°57' W 082°27'0 0.0
2018-May-10 02:58N 27°57' W 082°27'0 0.0
2018-May-10 02:28N 27°57' W 082°27'0 0.0
2018-May-10 01:58N 27°57' W 082°27'0 0.0
2018-May-10 01:28N 27°57' W 082°27'0 0.0
2018-May-10 00:58N 27°57' W 082°27'0 0.0
2018-May-10 00:28N 27°57' W 082°27'0 0.0
2018-May-09 23:58N 27°57' W 082°27'0 0.0
2018-May-09 23:28N 27°57' W 082°27'0 0.0
2018-May-09 22:58N 27°57' W 082°27'0 0.0
2018-May-09 22:28N 27°57' W 082°27'0 0.0
2018-May-09 21:58N 27°57' W 082°27'0 0.0
2018-May-09 21:28N 27°57' W 082°27'0 0.0
2018-May-09 20:58N 27°57' W 082°27'0 0.0
2018-May-09 20:28N 27°57' W 082°27'0 0.0
2018-May-09 19:58N 27°57' W 082°27'0 0.0
2018-May-09 19:28N 27°57' W 082°27'0 0.0
2018-May-09 18:58N 27°57' W 082°27'0 0.0
2018-May-09 18:28N 27°57' W 082°27'0 0.0
2018-May-09 17:58N 27°57' W 082°27'0 0.0
2018-May-09 17:28N 27°57' W 082°27'0 0.0
2018-May-09 16:58N 27°57' W 082°27'0 0.0
2018-May-09 16:28N 27°57' W 082°27'0 0.0
2018-May-09 15:58N 27°57' W 082°27'0 0.0
2018-May-09 15:28N 27°57' W 082°27'0 0.0
2018-May-09 14:58N 27°57' W 082°27'0 0.0
2018-May-09 14:28N 27°57' W 082°27'0 0.0
2018-May-09 13:58N 27°57' W 082°27'0 0.0
2018-May-09 13:28N 27°57' W 082°27'0 0.0
2018-May-09 12:58N 27°57' W 082°27'0 0.0
2018-May-09 12:28N 27°57' W 082°27'0 0.0
2018-May-09 11:58N 27°57' W 082°27'0 0.0
2018-May-09 11:28N 27°57' W 082°27'0 0.0
2018-May-09 10:58N 27°57' W 082°27'0 0.0
2018-May-09 10:28N 27°57' W 082°27'0 0.0
2018-May-09 09:58N 27°57' W 082°27'0 0.0
2018-May-09 09:28N 27°57' W 082°27'0 0.0
2018-May-09 08:58N 27°57' W 082°27'0 0.0
2018-May-09 08:28N 27°57' W 082°27'0 0.0
2018-May-09 07:55N 27°57' W 082°27'0 0.0
2018-May-09 07:28N 27°57' W 082°27'0 0.0
2018-May-09 06:58N 27°57' W 082°27'0 0.0
2018-May-09 06:28N 27°57' W 082°27'0 0.0
2018-May-09 05:55N 27°57' W 082°27'0 0.0
2018-May-09 05:28N 27°57' W 082°27'0 0.0
2018-May-09 04:58N 27°57' W 082°27'0 0.0
2018-May-09 04:28N 27°57' W 082°27'0 0.0
2018-May-09 03:58N 27°57' W 082°27'0 0.0
2018-May-09 03:28N 27°57' W 082°27'0 0.0
2018-May-09 02:58N 27°57' W 082°27'0 0.0
2018-May-09 02:28N 27°57' W 082°27'0 0.0
2018-May-09 01:58N 27°57' W 082°27'0 0.1
2018-May-09 01:28N 27°57' W 082°27'0 0.0
2018-May-09 00:58N 27°57' W 082°27'0 0.0
2018-May-09 00:28N 27°57' W 082°27'0 0.0
2018-May-08 23:58N 27°57' W 082°27'0 0.0
2018-May-08 23:28N 27°57' W 082°27'0 0.0
2018-May-08 22:58N 27°57' W 082°27'0 0.0
2018-May-08 22:28N 27°57' W 082°27'0 0.0
2018-May-08 21:58N 27°57' W 082°27'0 0.0
2018-May-08 21:28N 27°57' W 082°27'0 0.0
2018-May-08 21:00N 27°57' W 082°27'0 0.0
2018-May-08 20:30N 27°57' W 082°27'0 0.0
2018-May-08 20:00N 27°57' W 082°27'0 0.0
2018-May-08 19:26N 27°57' W 082°27'0 0.1
2018-May-08 19:01N 27°57' W 082°27'1 1.3
2018-May-08 18:30N 27°56' W 082°27'2 4.6
2018-May-08 18:01N 27°54' W 082°26'5 9.2
2018-May-08 17:31N 27°49' W 082°27'4 8.8
2018-May-08 17:01N 27°47' W 082°31'5 9.3
2018-May-08 16:30N 27°43' W 082°33'  

Dump ship's entire track history